Flugplatz Dörzbach Hohebach (UL)

Hier findest Du alle Informationen zum Flugplatz Dörzbach Hohebach (UL).

Informationen für Piloten zum Flugplatz Dörzbach Hohebach

Hier findest Du alle relevanten Informationen, die Du als Pilot benötigst, um Dörzbach Hohebach anzufliegen.

Flugplatz: Dörzbach Hohebach ICAO-Code: UL Flugplatz
Frequenz Turm: 123.425 Mhz GAFOR Gebiet: 55
Frequenz Ground: 123.425 Mhz Mogas: nein
Platzrunde: NO 2000 ft Landegebühr: -
Platzhöhe: Sunrise: 06:48 Uhr UTC
Pisten: 15/33 - 290 m x 20 m, GRAS Sunset: 15:29 Uhr UTC

Mitglieder, die in Dörzbach Hohebach fliegen

Flugwetter am Flugplatz Dörzbach Hohebach

Die METAR Information stammen aus EDDS (81.73 km entfernt).

METAR Code:
2020/11/21 17:20
EDDS 211720Z 29003KT CAVOK 01/M01 Q1031 NOSIG

Flugschulen am Flugplatz Dörzbach Hohebach

Am Flugplatz Dörzbach Hohebach gibt es leider keine Flugschule.

Benachbarte Flugplätze und Flugschulen

Es gibt 20 weitere Flugplätze in einem Umkreis von 50 km um den Flugplatz Dörzbach Hohebach.

Jetzt anmelden

Passwort vergessen

Umfrage Archiv

Wie viele Flugstunden seid Ihr in Eurer Pilotenausbildung geflogen?

31 - 40 Stunden
50 %
41 - 50 Stunden
21.2 %
exakt 30 Stunden
15.4 %
über 60 Stunden
7.7 %
51 - 60 Stunden
5.8 %
Stimmen: 52 | Diskussion
Anzeige: Roland Aircraft
Statistik Alle Mitglieder

Aktuell sind 36 Besucher online, davon 2 Mitglieder und 34 Gäste.


Mitglieder online:
dmkoe  MichaelKu 

Anzeige: VFR Sprechfunk Simulator


Anzeige: Pocket FMS